KDUH

Toledo Suburban Airport

Lambertville, Michigan, USA
METAR KDUH 171815Z AUTO 30009G15KT 10SM SCT041 BKN050 11/00 A3017 RMK AO2 T01060001
Observed Flight Rules
Oct-17 @ 18:15 UTC (5 minutes ago) Visual Flight Rules
Wind Visibility Clouds
300° at 9 knots
 Gusting to 15 knots
10 miles
  • Scattered at 4,100' AGL
  • Broken at 5,000' AGL
Temperatures Readings
Current 11°C / 52°F
Dewpoint 0°C / 32°F
Humidity 47%
Altimeter 30.17" Hg
Pressure 1022 hPa
Elevation 204
METAR KDUH 171815Z AUTO 30009G15KT 10SM SCT041 BKN050 11/00 A3017 RMK AO2 T01060001
Observed Flight Rules
Oct-17 @ 18:15 UTC
(5 minutes ago)
VFR
Wind Visibility
300° at 9 knots
 Gusting to 15 knots
10 miles
Clouds
  • Scattered at 4,100' AGL
  • Broken at 5,000' AGL
Temperature Dewpoint
11°C / 52°F 0°C / 32°F
Humidity Altimeter Pressure
47% 30.17" Hg 1022 hPa